KONL/ONL METAR and TAF weather

Enter ICAO airport designator
Station Type Date Time Source
KONL METAR 2020/02/24 07:55 UTC NOAA

KONL 240755Z AUTO 00000KT 10SM CLR M02/M03 A2993 RMK AO2 T10241035


Station Type Date Time Source
KONL Decoded METAR 2020/02/24 07:55 UTC NOAA

O'Neill / Baker Field, NE, United States (KONL) 42-28N 098-41W
Feb 24, 2020 - 02:55 AM EST / 2020.02.24 0755 UTC
Wind: Calm:0
Visibility: 10 mile(s):0
Sky conditions: clear
Temperature: 27.7 F (-2.4 C)
Dew Point: 25.7 F (-3.5 C)
Relative Humidity: 92%
Pressure (altimeter): 29.93 in. Hg (1013 hPa)
ob: KONL 240755Z AUTO 00000KT 10SM CLR M02/M03 A2993 RMK AO2 T10241035
cycle: 8

Station Type Date Time Source
KONL TAF UTC NOAA

Error!

Example: see airport list